createdAt,value
2019-06-08T00:00:15.278Z,60.78
2019-06-08T00:02:43.045Z,60.54
2019-06-08T00:05:12.592Z,59.90
2019-06-08T00:07:40.716Z,60.51
2019-06-08T00:10:08.727Z,61.14
2019-06-08T00:12:36.518Z,60.52
2019-06-08T00:15:04.864Z,60.54
2019-06-08T00:17:38.514Z,59.03
2019-06-08T00:20:02.430Z,59.69
2019-06-08T00:22:30.257Z,58.76
2019-06-08T00:24:58.088Z,59.13
2019-06-08T00:27:25.994Z,60.13
2019-06-08T00:29:53.779Z,60.28
2019-06-08T00:32:22.635Z,59.23
2019-06-08T00:34:50.715Z,58.81
2019-06-08T00:37:18.792Z,57.14
2019-06-08T00:39:46.963Z,56.59
2019-06-08T00:42:15.104Z,56.32
2019-06-08T00:44:43.272Z,57.31
2019-06-08T00:47:11.093Z,56.35
2019-06-08T00:49:38.863Z,56.29
2019-06-08T00:52:06.655Z,54.80
2019-06-08T00:54:34.485Z,54.64
2019-06-08T00:57:02.301Z,54.28
2019-06-08T00:59:30.479Z,53.81
2019-06-08T01:01:58.768Z,54.00
2019-06-08T01:04:27.165Z,54.11
2019-06-08T01:06:55.558Z,53.94
2019-06-08T01:09:24.221Z,54.51
2019-06-08T01:11:52.504Z,55.06
2019-06-08T01:14:20.881Z,55.40
2019-06-08T01:16:49.126Z,54.68
2019-06-08T01:19:16.894Z,54.46
2019-06-08T01:21:44.703Z,53.58
2019-06-08T01:24:12.521Z,53.28
2019-06-08T01:26:40.462Z,53.57
2019-06-08T01:29:08.243Z,53.96
2019-06-08T01:31:36.102Z,53.38
2019-06-08T01:34:04.009Z,53.87
2019-06-08T01:36:31.996Z,54.22
2019-06-08T01:39:01.208Z,54.27
2019-06-08T01:41:29.641Z,54.26
2019-06-08T01:43:57.846Z,54.65
2019-06-08T01:46:25.872Z,55.13
2019-06-08T01:48:54.157Z,56.05
2019-06-08T01:51:22.554Z,55.76
2019-06-08T01:53:50.935Z,55.94
2019-06-08T01:56:18.737Z,56.60
2019-06-08T01:58:46.569Z,56.62
2019-06-08T02:01:14.410Z,56.26
2019-06-08T02:03:42.241Z,56.58
2019-06-08T02:06:10.037Z,56.13
2019-06-08T02:08:37.851Z,56.49
2019-06-08T02:11:05.727Z,56.94
2019-06-08T02:13:33.529Z,57.40
2019-06-08T02:16:01.331Z,56.64
2019-06-08T02:18:39.807Z,55.97
2019-06-08T02:20:59.743Z,56.40
2019-06-08T02:23:28.864Z,56.71
2019-06-08T02:25:57.099Z,57.08
2019-06-08T02:28:29.417Z,56.61
2019-06-08T02:30:57.494Z,57.09
2019-06-08T02:33:25.286Z,57.36
2019-06-08T02:35:53.102Z,57.41
2019-06-08T02:38:20.911Z,57.34
2019-06-08T02:40:48.681Z,57.73
2019-06-08T02:43:16.497Z,56.65
2019-06-08T02:45:44.262Z,56.70
2019-06-08T02:48:12.090Z,56.79
2019-06-08T02:50:55.527Z,56.67
2019-06-08T02:53:25.863Z,56.74
2019-06-08T02:55:55.010Z,57.21
2019-06-08T02:58:23.559Z,56.93
2019-06-08T03:00:53.951Z,56.91
2019-06-08T03:03:22.474Z,57.45
2019-06-08T03:05:51.544Z,57.59
2019-06-08T03:08:20.652Z,57.73
2019-06-08T03:10:52.325Z,57.48
2019-06-08T03:13:22.322Z,57.03
2019-06-08T03:15:50.120Z,56.80
2019-06-08T03:18:17.957Z,56.44
2019-06-08T03:20:45.750Z,56.86
2019-06-08T03:23:13.591Z,57.24
2019-06-08T03:25:51.798Z,57.18
2019-06-08T03:28:11.290Z,57.13
2019-06-08T03:30:47.382Z,56.65
2019-06-08T03:33:08.998Z,56.70
2019-06-08T03:35:46.510Z,56.29
2019-06-08T03:38:06.496Z,57.04
2019-06-08T03:40:35.797Z,56.92
2019-06-08T03:43:03.814Z,57.31
2019-06-08T03:45:34.185Z,57.26
2019-06-08T03:48:02.086Z,57.15
2019-06-08T03:50:30.054Z,57.33
2019-06-08T03:52:57.993Z,57.23
2019-06-08T03:55:25.829Z,57.50
2019-06-08T03:57:53.579Z,57.46
2019-06-08T04:00:21.749Z,57.56
2019-06-08T04:02:50.291Z,57.42
2019-06-08T04:05:18.563Z,56.98
2019-06-08T04:07:46.573Z,56.96
2019-06-08T04:10:14.885Z,56.42
2019-06-08T04:12:44.213Z,56.11
2019-06-08T04:15:13.961Z,56.19
2019-06-08T04:17:42.186Z,55.86
2019-06-08T04:20:12.461Z,55.80
2019-06-08T04:22:46.830Z,55.43
2019-06-08T04:25:15.582Z,55.67
2019-06-08T04:27:44.813Z,55.74
2019-06-08T04:30:14.342Z,55.72
2019-06-08T04:32:42.858Z,55.84
2019-06-08T04:35:11.102Z,55.68
2019-06-08T04:37:40.519Z,55.44
2019-06-08T04:40:08.717Z,55.16
2019-06-08T04:42:36.525Z,55.04
2019-06-08T04:45:06.281Z,54.97
2019-06-08T04:47:34.148Z,54.65
2019-06-08T04:50:20.887Z,54.81
2019-06-08T04:52:31.812Z,54.68
2019-06-08T04:54:59.591Z,54.57
2019-06-08T04:57:27.485Z,55.21
2019-06-08T04:59:55.286Z,54.57
2019-06-08T05:02:23.106Z,54.15
2019-06-08T05:04:50.931Z,54.12
2019-06-08T05:07:18.761Z,54.51
2019-06-08T05:09:47.168Z,54.19
2019-06-08T05:12:15.303Z,53.84
2019-06-08T05:14:43.121Z,54.11
2019-06-08T05:17:10.973Z,53.74
2019-06-08T05:19:39.227Z,54.31
2019-06-08T05:22:07.431Z,53.54
2019-06-08T05:24:35.277Z,53.79
2019-06-08T05:27:03.217Z,53.80
2019-06-08T05:29:31.017Z,53.10
2019-06-08T05:31:58.858Z,52.68
2019-06-08T05:34:26.673Z,52.39
2019-06-08T05:36:54.483Z,52.53
2019-06-08T05:39:22.265Z,51.97
2019-06-08T05:41:50.061Z,52.12
2019-06-08T05:44:18.231Z,52.17
2019-06-08T05:46:47.464Z,51.81
2019-06-08T05:49:15.968Z,51.72
2019-06-08T05:51:43.868Z,51.96
2019-06-08T05:54:11.637Z,51.86
2019-06-08T05:56:39.827Z,51.93
2019-06-08T05:59:08.043Z,51.74
2019-06-08T06:01:35.852Z,51.32
2019-06-08T06:04:03.875Z,51.11
2019-06-08T06:06:31.713Z,50.77
2019-06-08T06:08:59.523Z,50.69
2019-06-08T06:11:27.303Z,50.53
2019-06-08T06:13:55.177Z,51.11
2019-06-08T06:16:23.018Z,50.76
2019-06-08T06:18:52.182Z,50.71
2019-06-08T06:21:20.289Z,51.04
2019-06-08T06:23:49.239Z,50.31
2019-06-08T06:26:17.571Z,50.53
2019-06-08T06:28:45.650Z,49.74
2019-06-08T06:31:13.846Z,50.26
2019-06-08T06:33:42.029Z,50.05
2019-06-08T06:36:10.171Z,50.20
2019-06-08T06:38:37.974Z,49.84
2019-06-08T06:41:05.896Z,50.07
2019-06-08T06:43:33.739Z,50.05
2019-06-08T06:46:03.713Z,50.40
2019-06-08T06:48:31.544Z,50.60
2019-06-08T06:50:59.412Z,51.18
2019-06-08T06:53:27.216Z,51.02
2019-06-08T06:55:55.017Z,50.63
2019-06-08T06:58:22.942Z,50.32
2019-06-08T07:00:51.524Z,50.01
2019-06-08T07:03:20.792Z,48.95
2019-06-08T07:05:49.907Z,48.34
2019-06-08T07:08:18.052Z,47.44
2019-06-08T07:10:46.572Z,47.64
2019-06-08T07:13:14.712Z,48.21
2019-06-08T07:15:42.752Z,48.62
2019-06-08T07:18:10.573Z,48.26
2019-06-08T07:20:38.398Z,47.79
2019-06-08T07:23:06.170Z,47.18
2019-06-08T07:25:34.336Z,47.20
2019-06-08T07:28:02.154Z,47.09
2019-06-08T07:30:30.012Z,47.07
2019-06-08T07:32:59.227Z,46.64
2019-06-08T07:35:27.795Z,45.62
2019-06-08T07:37:55.658Z,45.49
2019-06-08T07:40:23.636Z,44.53
2019-06-08T07:42:53.030Z,40.88
2019-06-08T07:45:21.271Z,37.85
2019-06-08T07:47:49.944Z,35.41
2019-06-08T07:50:18.320Z,32.13
2019-06-08T07:52:46.260Z,32.06
2019-06-08T07:55:15.115Z,34.80
2019-06-08T07:57:43.093Z,34.78
2019-06-08T08:00:11.047Z,32.89
2019-06-08T08:02:38.958Z,35.08
2019-06-08T08:05:08.390Z,37.38
2019-06-08T08:07:36.311Z,37.50
2019-06-08T08:10:05.053Z,35.80
2019-06-08T08:12:32.966Z,35.22
2019-06-08T08:15:00.897Z,36.50
2019-06-08T08:17:28.795Z,37.46
2019-06-08T08:19:57.353Z,38.17
2019-06-08T08:22:29.520Z,39.67
2019-06-08T08:25:02.724Z,41.39
2019-06-08T08:27:28.089Z,41.86
2019-06-08T08:29:58.622Z,42.67
2019-06-08T08:32:28.158Z,42.09
2019-06-08T08:34:58.721Z,40.27
2019-06-08T08:37:24.878Z,38.46
2019-06-08T08:39:53.543Z,38.56
2019-06-08T08:42:21.748Z,39.30
2019-06-08T08:44:50.957Z,39.72
2019-06-08T08:47:19.323Z,40.88
2019-06-08T08:49:47.948Z,41.51
2019-06-08T08:52:17.510Z,42.12
2019-06-08T08:54:47.477Z,41.80
2019-06-08T08:57:17.959Z,42.26
2019-06-08T08:59:47.706Z,42.18
2019-06-08T09:02:18.410Z,42.29
2019-06-08T09:04:47.543Z,42.58
2019-06-08T09:07:14.624Z,41.30
2019-06-08T09:09:43.554Z,40.48
2019-06-08T09:12:11.345Z,40.68
2019-06-08T09:14:42.928Z,40.61
2019-06-08T09:17:10.778Z,40.92
2019-06-08T09:19:38.656Z,40.96
2019-06-08T09:22:08.588Z,40.73
2019-06-08T09:24:38.774Z,40.51
2019-06-08T09:27:08.027Z,40.69
2019-06-08T09:29:38.601Z,40.46
2019-06-08T09:32:08.178Z,39.83
2019-06-08T09:34:38.378Z,39.39
2019-06-08T09:37:07.842Z,38.23
2019-06-08T09:39:35.402Z,36.81
2019-06-08T09:42:04.876Z,32.01
2019-06-08T09:44:32.988Z,28.05
2019-06-08T09:47:05.665Z,26.35
2019-06-08T09:49:30.504Z,21.88
2019-06-08T09:52:00.414Z,17.50
2019-06-08T09:54:28.336Z,20.16
2019-06-08T09:57:00.915Z,24.95
2019-06-08T09:59:28.359Z,26.05
2019-06-08T10:02:02.971Z,25.00
2019-06-08T10:04:28.727Z,25.78
2019-06-08T10:06:56.849Z,26.91
2019-06-08T10:09:25.102Z,25.52
2019-06-08T10:11:54.181Z,22.19
2019-06-08T10:14:22.460Z,22.98
2019-06-08T10:16:50.330Z,26.01
2019-06-08T10:19:18.774Z,24.89
2019-06-08T10:21:48.193Z,21.88
2019-06-08T10:24:16.473Z,18.21
2019-06-08T10:26:44.287Z,17.65
2019-06-08T10:29:12.126Z,17.58
2019-06-08T10:31:43.636Z,17.38
2019-06-08T10:34:11.082Z,16.62
2019-06-08T10:36:39.372Z,17.42
2019-06-08T10:39:11.452Z,16.93
2019-06-08T10:41:38.883Z,16.06
2019-06-08T10:44:11.160Z,15.50
2019-06-08T10:46:40.288Z,14.31
2019-06-08T10:49:09.577Z,13.78
2019-06-08T10:51:40.171Z,12.91
2019-06-08T10:54:09.003Z,12.70
2019-06-08T10:56:38.394Z,12.61
2019-06-08T10:59:09.955Z,12.27
2019-06-08T11:01:35.339Z,12.34
2019-06-08T11:04:03.386Z,10.83
2019-06-08T11:06:32.863Z,10.90
2019-06-08T11:09:05.192Z,10.50
2019-06-08T11:11:31.011Z,11.21
2019-06-08T11:14:00.940Z,10.93
2019-06-08T11:16:28.747Z,10.09
2019-06-08T11:18:59.091Z,10.57
2019-06-08T11:21:28.619Z,10.71
2019-06-08T11:24:07.564Z,10.41
2019-06-08T11:26:28.951Z,10.28
2019-06-08T11:28:58.608Z,11.45
2019-06-08T11:31:28.910Z,10.73
2019-06-08T11:33:58.885Z,10.79
2019-06-08T11:36:28.193Z,10.40
2019-06-08T11:38:58.785Z,10.34
2019-06-08T11:41:27.810Z,9.76
2019-06-08T11:43:59.605Z,9.88
2019-06-08T11:46:28.064Z,9.68
2019-06-08T11:48:57.670Z,9.38
2019-06-08T11:51:24.989Z,9.51
2019-06-08T11:53:53.049Z,9.38
2019-06-08T11:56:22.424Z,9.41
2019-06-08T11:58:53.378Z,9.64
2019-06-08T12:01:21.242Z,11.44
2019-06-08T12:03:49.067Z,13.70
2019-06-08T12:06:18.597Z,12.03
2019-06-08T12:08:47.326Z,10.83
2019-06-08T12:11:17.260Z,10.32
2019-06-08T12:13:46.920Z,10.96
2019-06-08T12:16:19.718Z,12.83
2019-06-08T12:18:44.777Z,12.97
2019-06-08T12:21:13.319Z,12.05
2019-06-08T12:23:42.414Z,11.10
2019-06-08T12:26:10.268Z,10.35
2019-06-08T12:28:38.226Z,9.51
2019-06-08T12:31:11.408Z,9.32
2019-06-08T12:33:38.953Z,9.12
2019-06-08T12:36:08.521Z,8.52
2019-06-08T12:38:37.921Z,8.40
2019-06-08T12:41:07.938Z,8.59
2019-06-08T12:43:34.874Z,8.71
2019-06-08T12:46:02.698Z,8.07
2019-06-08T12:48:30.493Z,7.83
2019-06-08T12:50:58.330Z,7.83
2019-06-08T12:53:28.152Z,8.66
2019-06-08T12:55:57.901Z,8.20
2019-06-08T12:58:27.593Z,8.48
2019-06-08T13:00:57.845Z,8.57
2019-06-08T13:03:25.034Z,9.26
2019-06-08T13:05:52.842Z,11.38
2019-06-08T13:08:21.853Z,12.18
2019-06-08T13:10:50.096Z,13.59
2019-06-08T13:13:20.002Z,14.21
2019-06-08T13:15:48.402Z,13.93
2019-06-08T13:18:17.678Z,14.15
2019-06-08T13:20:51.471Z,12.74
2019-06-08T13:23:19.637Z,12.22
2019-06-08T13:25:48.030Z,11.23
2019-06-08T13:28:19.402Z,10.33
2019-06-08T13:30:47.697Z,9.93
2019-06-08T13:33:16.198Z,10.27
2019-06-08T13:35:44.406Z,10.26
2019-06-08T13:38:12.662Z,11.53
2019-06-08T13:40:40.852Z,13.46
2019-06-08T13:43:08.697Z,15.75
2019-06-08T13:45:39.106Z,17.16
2019-06-08T13:48:08.725Z,18.35
2019-06-08T13:50:35.989Z,19.62
2019-06-08T13:53:03.806Z,20.40
2019-06-08T13:55:47.726Z,21.48
2019-06-08T13:58:01.310Z,21.71
2019-06-08T14:00:38.135Z,22.46
2019-06-08T14:03:08.417Z,22.72
2019-06-08T14:05:38.823Z,22.88
2019-06-08T14:08:10.610Z,22.82
2019-06-08T14:10:38.868Z,22.77
2019-06-08T14:13:07.991Z,23.25
2019-06-08T14:15:37.896Z,23.33
2019-06-08T14:18:05.555Z,23.73
2019-06-08T14:20:34.527Z,23.96
2019-06-08T14:23:03.349Z,24.40
2019-06-08T14:25:46.643Z,24.24
2019-06-08T14:28:00.898Z,24.69
2019-06-08T14:30:32.888Z,24.56
2019-06-08T14:32:58.427Z,24.94
2019-06-08T14:35:27.151Z,25.16
2019-06-08T14:37:57.832Z,25.10
2019-06-08T14:40:31.025Z,25.04
2019-06-08T14:42:55.316Z,25.14
2019-06-08T14:45:23.124Z,25.21
2019-06-08T14:47:50.975Z,25.50
2019-06-08T14:50:21.138Z,25.75
2019-06-08T14:52:50.423Z,25.91
2019-06-08T14:55:20.066Z,25.71
2019-06-08T14:57:48.258Z,24.78
2019-06-08T15:00:22.595Z,24.83
2019-06-08T15:02:50.849Z,24.73
2019-06-08T15:05:19.918Z,24.92
2019-06-08T15:07:48.666Z,24.71
2019-06-08T15:10:18.316Z,24.91
2019-06-08T15:12:48.756Z,24.30
2019-06-08T15:15:18.319Z,24.30
2019-06-08T15:17:47.731Z,24.09
2019-06-08T15:20:17.597Z,24.13
2019-06-08T15:22:45.589Z,24.41
2019-06-08T15:25:13.417Z,24.74
2019-06-08T15:27:41.226Z,25.00
2019-06-08T15:30:10.511Z,25.36
2019-06-08T15:32:38.774Z,25.34
2019-06-08T15:35:08.089Z,25.20
2019-06-08T15:37:37.952Z,25.32
2019-06-08T15:40:07.809Z,25.29
2019-06-08T15:42:36.001Z,24.93
2019-06-08T15:45:08.088Z,25.07
2019-06-08T15:47:35.014Z,25.41
2019-06-08T15:50:03.155Z,25.67
2019-06-08T15:52:32.656Z,25.49
2019-06-08T15:55:01.546Z,25.42
2019-06-08T15:57:34.041Z,25.44
2019-06-08T15:59:59.574Z,25.32
2019-06-08T16:02:27.629Z,25.50
2019-06-08T16:04:55.838Z,25.77
2019-06-08T16:07:28.572Z,26.34
2019-06-08T16:09:53.446Z,25.76
2019-06-08T16:12:21.260Z,25.96
2019-06-08T16:14:49.070Z,26.04
2019-06-08T16:17:16.856Z,26.33
2019-06-08T16:19:44.656Z,26.12
2019-06-08T16:22:12.510Z,26.36
2019-06-08T16:24:40.395Z,26.88
2019-06-08T16:27:08.188Z,26.87
2019-06-08T16:29:36.055Z,26.42
2019-06-08T16:32:03.925Z,25.92
2019-06-08T16:34:31.796Z,26.05
2019-06-08T16:36:59.729Z,26.10
2019-06-08T16:39:28.570Z,25.57
2019-06-08T16:41:56.900Z,25.92
2019-06-08T16:44:24.678Z,25.59
2019-06-08T16:46:52.509Z,26.04
2019-06-08T16:49:20.324Z,26.35
2019-06-08T16:51:48.212Z,26.16
2019-06-08T16:54:16.090Z,25.88
2019-06-08T16:56:43.877Z,26.14
2019-06-08T16:59:11.722Z,26.65
2019-06-08T17:01:39.503Z,26.74
2019-06-08T17:04:07.368Z,27.16
2019-06-08T17:06:35.327Z,26.69
2019-06-08T17:09:04.728Z,26.03
2019-06-08T17:11:33.685Z,26.62
2019-06-08T17:14:01.924Z,26.98
2019-06-08T17:16:30.039Z,27.36
2019-06-08T17:18:58.248Z,27.59
2019-06-08T17:21:26.089Z,27.38
2019-06-08T17:23:53.875Z,27.83
2019-06-08T17:26:21.635Z,27.80
2019-06-08T17:28:49.594Z,27.36
2019-06-08T17:31:17.510Z,27.92
2019-06-08T17:33:45.330Z,28.11
2019-06-08T17:36:13.164Z,28.02
2019-06-08T17:38:41.462Z,28.63
2019-06-08T17:41:09.784Z,29.12
2019-06-08T17:43:38.223Z,29.14
2019-06-08T17:46:06.334Z,28.33
2019-06-08T17:48:34.916Z,28.87
2019-06-08T17:51:03.351Z,28.97
2019-06-08T17:53:31.205Z,28.97
2019-06-08T17:55:59.065Z,29.32
2019-06-08T17:58:27.016Z,29.74
2019-06-08T18:00:54.821Z,30.42
2019-06-08T18:03:22.751Z,30.81
2019-06-08T18:05:50.585Z,30.73
2019-06-08T18:08:18.400Z,31.13
2019-06-08T18:10:48.191Z,31.28
2019-06-08T18:13:18.064Z,31.38
2019-06-08T18:15:48.077Z,31.57
2019-06-08T18:18:17.648Z,31.37
2019-06-08T18:20:45.343Z,31.71
2019-06-08T18:23:13.204Z,31.97
2019-06-08T18:25:42.115Z,32.12
2019-06-08T18:28:13.598Z,32.40
2019-06-08T18:30:42.913Z,32.66
2019-06-08T18:33:10.405Z,32.85
2019-06-08T18:35:41.234Z,33.20
2019-06-08T18:38:08.029Z,33.29
2019-06-08T18:40:37.910Z,33.72
2019-06-08T18:43:07.580Z,34.11
2019-06-08T18:45:38.073Z,34.56
2019-06-08T18:48:07.142Z,34.70
2019-06-08T18:50:38.054Z,34.92
2019-06-08T18:53:07.116Z,34.71
2019-06-08T18:55:36.278Z,35.22
2019-06-08T18:58:17.634Z,35.31
2019-06-08T19:00:39.979Z,35.86
2019-06-08T19:03:08.455Z,35.97
2019-06-08T19:05:40.300Z,36.13
2019-06-08T19:08:09.483Z,36.19
2019-06-08T19:10:40.693Z,36.38
2019-06-08T19:13:08.969Z,36.60
2019-06-08T19:15:42.254Z,36.73
2019-06-08T19:18:08.144Z,37.38
2019-06-08T19:20:40.783Z,37.47
2019-06-08T19:23:09.130Z,37.81
2019-06-08T19:25:42.152Z,38.01
2019-06-08T19:28:07.794Z,38.35
2019-06-08T19:30:39.377Z,38.39
2019-06-08T19:33:07.332Z,38.57
2019-06-08T19:35:35.668Z,38.66
2019-06-08T19:38:03.477Z,38.91
2019-06-08T19:40:31.262Z,39.30
2019-06-08T19:43:01.394Z,39.75
2019-06-08T19:45:28.799Z,39.73
2019-06-08T19:47:57.726Z,39.90
2019-06-08T19:50:28.739Z,39.80
2019-06-08T19:52:57.837Z,39.66
2019-06-08T19:55:25.551Z,39.61
2019-06-08T19:57:53.387Z,39.91
2019-06-08T20:00:21.750Z,40.06
2019-06-08T20:02:53.367Z,40.13
2019-06-08T20:05:19.441Z,40.45
2019-06-08T20:07:47.290Z,40.45
2019-06-08T20:10:17.632Z,40.42
2019-06-08T20:12:46.052Z,40.63
2019-06-08T20:15:15.918Z,40.76
2019-06-08T20:17:48.507Z,40.82
2019-06-08T20:20:18.188Z,41.00
2019-06-08T20:22:48.735Z,41.35
2019-06-08T20:25:17.736Z,41.37
2019-06-08T20:27:48.434Z,41.71
2019-06-08T20:30:17.389Z,41.78
2019-06-08T20:32:47.205Z,41.66
2019-06-08T20:35:17.320Z,41.85
2019-06-08T20:37:45.750Z,42.21
2019-06-08T20:40:14.446Z,42.29
2019-06-08T20:42:44.070Z,42.36
2019-06-08T20:45:12.900Z,42.48
2019-06-08T20:47:42.057Z,42.67
2019-06-08T20:50:10.605Z,43.02
2019-06-08T20:52:38.434Z,43.15
2019-06-08T20:55:07.779Z,43.47
2019-06-08T20:57:36.014Z,43.71
2019-06-08T21:00:09.133Z,43.92
2019-06-08T21:02:37.223Z,43.94
2019-06-08T21:05:07.663Z,44.17
2019-06-08T21:07:35.316Z,44.45
2019-06-08T21:10:04.434Z,44.68
2019-06-08T21:12:32.228Z,44.78
2019-06-08T21:15:00.126Z,45.07
2019-06-08T21:17:27.979Z,45.29
2019-06-08T21:19:57.953Z,46.35
2019-06-08T21:22:27.590Z,46.80
2019-06-08T21:24:59.735Z,46.83
2019-06-08T21:27:24.918Z,47.05
2019-06-08T21:29:59.872Z,47.50
2019-06-08T21:32:22.505Z,47.89
2019-06-08T21:34:52.152Z,48.19
2019-06-08T21:37:20.023Z,48.13
2019-06-08T21:39:50.495Z,47.97
2019-06-08T21:42:17.547Z,48.24
2019-06-08T21:44:47.650Z,48.13
2019-06-08T21:47:15.113Z,47.34
2019-06-08T21:49:43.036Z,47.31
2019-06-08T21:52:10.846Z,46.92
2019-06-08T21:54:38.655Z,47.90
2019-06-08T21:57:09.020Z,48.21
2019-06-08T21:59:37.860Z,48.66
2019-06-08T22:02:08.339Z,48.96
2019-06-08T22:04:37.230Z,49.20
2019-06-08T22:07:07.083Z,48.79
2019-06-08T22:09:37.312Z,48.56
2019-06-08T22:12:07.090Z,48.55
2019-06-08T22:14:34.810Z,48.78
2019-06-08T22:17:03.262Z,48.55
2019-06-08T22:19:31.820Z,48.30
2019-06-08T22:22:01.794Z,47.94
2019-06-08T22:24:29.287Z,48.28
2019-06-08T22:26:58.568Z,48.13
2019-06-08T22:29:27.604Z,48.02
2019-06-08T22:31:55.906Z,48.26
2019-06-08T22:34:23.751Z,48.05
2019-06-08T22:36:52.592Z,48.06
2019-06-08T22:39:21.241Z,48.37
2019-06-08T22:41:49.040Z,48.28
2019-06-08T22:44:17.745Z,48.35
2019-06-08T22:46:47.838Z,48.36
2019-06-08T22:49:15.756Z,48.21
2019-06-08T22:51:43.559Z,47.95
2019-06-08T22:54:11.343Z,48.03
2019-06-08T22:56:39.438Z,48.50
2019-06-08T22:59:09.168Z,48.84
2019-06-08T23:01:38.361Z,49.11
2019-06-08T23:04:09.003Z,49.58
2019-06-08T23:06:38.470Z,49.62
2019-06-08T23:09:08.739Z,49.79
2019-06-08T23:11:37.567Z,50.29
2019-06-08T23:14:12.734Z,50.60
2019-06-08T23:16:35.535Z,51.13
2019-06-08T23:19:03.464Z,51.79
2019-06-08T23:21:31.267Z,51.70
2019-06-08T23:24:00.993Z,52.24
2019-06-08T23:26:30.147Z,52.01
2019-06-08T23:28:58.125Z,52.32
2019-06-08T23:31:28.961Z,52.40
2019-06-08T23:33:57.164Z,52.86
2019-06-08T23:36:51.616Z,53.43
2019-06-08T23:38:55.182Z,53.52
2019-06-08T23:41:22.960Z,53.04
2019-06-08T23:43:51.587Z,51.85
2019-06-08T23:46:19.397Z,51.57
2019-06-08T23:48:48.448Z,51.87
2019-06-08T23:51:18.125Z,51.20
2019-06-08T23:53:47.762Z,50.88
2019-06-08T23:56:18.135Z,51.11
2019-06-08T23:58:47.998Z,50.78
